Time;durP1;ratioP1;P1;durP2;ratioP2;P2;SDS_P1;SDS_P2;PMS_P1;PMS_P2;Temp;Humidity;BMP_temperature;BMP_pressure;BME280_temperature;BME280_humidity;BME280_pressure;Samples;Min_cycle;Max_cycle;Signal;HPM_P1;HPM_P2
2022/02/10 00:06:16;;;;;;;20.10;15.40;;;;;;;0.04;82.18;98428.84;110178;1247;58901;-72
2022/02/10 00:22:09;;;;;;;33.70;21.90;;;;;;;0.17;81.77;98424.38;110194;1247;69758;-70
2022/02/10 00:25:29;;;;;;;28.40;17.20;;;;;;;0.18;81.80;98422.48;110086;1248;68598;-69
2022/02/10 00:36:09;;;;;;;31.20;22.20;;;;;;;0.22;80.88;98421.20;110152;1247;69837;-64
2022/02/10 00:38:52;;;;;;;35.60;22.00;;;;;;;0.21;81.02;98424.83;110193;1247;68380;-64
2022/02/10 00:41:22;;;;;;;33.60;21.60;;;;;;;0.17;82.46;98422.15;110131;1247;68613;-66
2022/02/10 00:43:51;;;;;;;28.40;18.40;;;;;;;0.16;81.44;98418.23;110015;1248;58932;-70
2022/02/10 00:46:20;;;;;;;36.20;22.70;;;;;;;0.16;81.22;98417.36;110162;1247;58828;-64
2022/02/10 00:48:50;;;;;;;31.30;20.90;;;;;;;0.16;80.96;98417.02;110054;1247;70243;-65
2022/02/10 00:51:21;;;;;;;24.60;17.30;;;;;;;0.15;81.09;98418.05;110116;1250;67694;-64
2022/02/10 00:53:51;;;;;;;;;;;;;;;0.16;81.10;98410.48;110156;1247;68629;-73
2022/02/10 00:56:21;;;;;;;19.20;14.60;;;;;;;0.17;81.25;98410.13;110224;1247;58915;-73
2022/02/10 00:58:59;;;;;;;23.00;14.20;;;;;;;0.17;81.04;98405.16;110141;1245;58938;-72
2022/02/10 01:10:22;;;;;;;31.00;19.40;;;;;;;0.22;81.46;98404.39;110032;1247;68602;-66
2022/02/10 01:12:50;;;;;;;25.60;16.00;;;;;;;0.20;81.51;98409.92;109901;1250;58890;-66
2022/02/10 01:29:39;;;;;;;44.70;27.60;;;;;;;0.04;81.98;98376.73;110254;1247;69828;-70
2022/02/10 01:32:09;;;;;;;47.50;28.00;;;;;;;-0.11;81.85;98385.34;109829;1250;68122;-66
2022/02/10 01:34:49;;;;;;;47.40;29.50;;;;;;;-0.23;82.21;98381.41;110182;1247;68582;-71
2022/02/10 01:37:18;;;;;;;;;;;;;;;-0.37;82.60;98378.70;110158;1247;58952;-72
2022/02/10 01:39:54;;;;;;;35.50;23.40;;;;;;;-0.47;82.60;98376.61;109891;1248;58966;-72
2022/02/10 02:04:24;;;;;;;37.10;22.20;;;;;;;-0.76;86.78;98389.14;110134;1247;58866;-73
2022/02/10 02:06:57;;;;;;;45.70;26.80;;;;;;;-0.70;85.36;98381.70;109994;1248;58813;-73
2022/02/10 02:09:26;;;;;;;46.00;29.40;;;;;;;-0.65;85.29;98381.13;110154;1247;69995;-67
2022/02/10 02:11:57;;;;;;;43.80;29.20;;;;;;;-0.62;84.47;98381.08;110189;1247;68419;-66
2022/02/10 02:14:28;;;;;;;41.70;27.20;;;;;;;-0.59;84.14;98377.80;110017;1250;68629;-65
2022/02/10 02:17:02;;;;;;;37.00;23.10;;;;;;;-0.57;84.70;98379.48;110115;1247;58875;-64
2022/02/10 02:19:33;;;;;;;40.20;24.40;;;;;;;-0.54;84.18;98379.27;110056;1248;58824;-64
2022/02/10 02:22:08;;;;;;;42.90;27.80;;;;;;;-0.50;83.80;98374.77;110088;1248;69939;-65
2022/02/10 02:24:38;;;;;;;25.00;15.40;;;;;;;-0.48;83.90;98378.84;110167;1247;69031;-69
2022/02/10 02:27:16;;;;;;;40.30;24.30;;;;;;;-0.43;83.60;98379.99;110211;1247;68816;-74
2022/02/10 02:29:55;;;;;;;36.80;22.50;;;;;;;-0.40;84.06;98379.26;110187;1247;58846;-72
2022/02/10 02:32:34;;;;;;;56.90;34.20;;;;;;;-0.35;83.84;98386.04;110158;1247;58905;-72
2022/02/10 03:04:04;;;;;;;35.10;20.80;;;;;;;-0.26;85.75;98385.40;110036;1247;68674;-73
2022/02/10 03:05:58;;;;;;;41.20;25.50;;;;;;;0.05;83.98;98360.27;109892;1250;68564;-66
2022/02/10 03:08:38;;;;;;;40.90;24.90;;;;;;;0.07;85.60;98364.70;109925;1247;69479;-65
2022/02/10 03:11:13;;;;;;;42.00;24.90;;;;;;;0.09;86.20;98358.14;109691;1250;58895;-66
2022/02/10 03:14:00;;;;;;;39.70;23.00;;;;;;;0.12;86.11;98357.94;109956;1250;59249;-65
2022/02/10 04:09:46;;;;;;;32.00;21.70;;;;;;;0.45;83.99;98347.95;110139;1248;58886;-69
2022/02/10 04:14:51;;;;;;;24.90;17.80;;;;;;;0.51;82.88;98348.02;109960;1247;68555;-68
2022/02/10 04:17:44;;;;;;;21.00;12.90;;;;;;;0.53;83.07;98350.05;109941;1247;68542;-66
2022/02/10 04:28:49;;;;;;;37.70;23.00;;;;;;;0.58;82.50;98339.14;110034;1248;68027;-71
2022/02/10 04:53:50;;;;;;;34.20;21.90;;;;;;;0.49;83.88;98349.06;110071;1250;70760;-70
2022/02/10 05:03:16;;;;;;;31.30;19.60;;;;;;;0.58;83.44;98355.44;110084;1247;58935;-66
2022/02/10 05:07:56;;;;;;;22.70;15.70;;;;;;;0.63;82.93;98356.20;109889;1248;70549;-71
2022/02/10 05:18:55;;;;;;;26.30;16.00;;;;;;;0.66;82.50;98361.81;109891;1248;58930;-65
2022/02/10 05:34:43;;;;;;;39.50;23.70;;;;;;;0.53;83.56;98372.86;110009;1250;70556;-67
2022/02/10 05:37:16;;;;;;;32.60;23.00;;;;;;;0.50;84.57;98376.51;110017;1249;68627;-71
2022/02/10 05:39:48;;;;;;;35.60;24.10;;;;;;;0.48;84.65;98377.23;109870;1250;68418;-74
2022/02/10 05:45:43;;;;;;;27.10;18.60;;;;;;;0.46;84.71;98377.60;109483;1253;59286;-70
2022/02/10 05:56:45;;;;;;;27.40;17.80;;;;;;;0.47;85.08;98372.27;110124;1247;58960;-71
2022/02/10 06:54:41;;;;;;;51.20;31.30;;;;;;;1.25;83.51;98353.48;109992;1250;58876;-65
2022/02/10 07:08:16;;;;;;;41.00;29.00;;;;;;;1.63;82.01;98345.46;110111;1247;58863;-70
2022/02/10 07:16:50;;;;;;;42.90;28.60;;;;;;;1.96;81.52;98338.86;110132;1247;68435;-72
2022/02/10 07:49:12;;;;;;;44.20;30.40;;;;;;;3.66;78.84;98323.94;109968;1249;58991;-68
2022/02/10 07:57:16;;;;;;;42.70;29.40;;;;;;;4.19;77.69;98329.85;110020;1248;68386;-68
2022/02/10 08:00:09;;;;;;;40.80;26.40;;;;;;;4.52;76.93;98326.15;109849;1250;58925;-72
2022/02/10 08:55:35;;;;;;;20.40;16.30;;;;;;;11.42;54.96;98337.96;110197;1248;59296;-66
2022/02/10 09:03:36;;;;;;;20.90;15.20;;;;;;;12.62;43.96;98330.87;110003;1250;68575;-67
2022/02/10 10:01:19;;;;;;;12.50;10.40;;;;;;;19.99;29.95;98297.25;110174;1248;69701;-66
2022/02/10 10:04:00;;;;;;;13.30;11.00;;;;;;;19.80;30.93;98292.48;110135;1249;58932;-68
2022/02/10 10:06:57;;;;;;;11.70;10.00;;;;;;;19.64;30.86;98289.66;109922;1249;59376;-69
2022/02/10 10:15:19;;;;;;;10.20;8.40;;;;;;;20.09;30.73;98277.52;110239;1248;68676;-71
2022/02/10 10:21:18;;;;;;;11.00;9.10;;;;;;;21.23;28.17;98266.91;109942;1248;58969;-68
2022/02/10 10:49:54;;;;;;;9.20;8.20;;;;;;;22.90;25.36;98234.91;109953;1248;58872;-73
2022/02/10 10:52:44;;;;;;;9.20;7.80;;;;;;;23.13;26.78;98232.52;109919;1249;70640;-74
2022/02/10 10:56:23;;;;;;;9.60;8.10;;;;;;;23.55;26.46;98229.98;110020;1250;68483;-73
2022/02/10 10:58:30;;;;;;;8.30;7.20;;;;;;;23.18;24.84;98225.23;109819;1250;69723;-70
2022/02/10 11:03:40;;;;;;;9.30;8.30;;;;;;;23.00;24.59;98221.16;109782;1250;58954;-75
2022/02/10 11:08:04;;;;;;;7.70;6.50;;;;;;;23.18;24.86;98217.63;109997;1250;70992;-75
2022/02/10 11:22:34;;;;;;;10.40;8.50;;;;;;;23.80;24.97;98202.40;109787;1250;69443;-76
2022/02/10 11:39:35;;;;;;;8.20;7.30;;;;;;;25.91;21.73;98163.11;109991;1250;67803;-68
2022/02/10 11:45:26;;;;;;;8.10;7.20;;;;;;;26.32;20.99;98164.52;110134;1248;59285;-67
2022/02/10 12:30:00;;;;;;;6.30;5.20;;;;;;;30.06;17.98;98122.73;109943;1250;58980;-76
2022/02/10 13:02:51;;;;;;;9.00;7.70;;;;;;;30.47;16.11;98102.03;110007;1249;58883;-72
2022/02/10 14:15:15;;;;;;;9.20;7.50;;;;;;;26.18;19.71;98043.17;109924;1249;58862;-73
2022/02/10 14:17:26;;;;;;;8.10;6.00;;;;;;;25.76;20.37;98042.55;110179;1248;68825;-72
2022/02/10 14:20:00;;;;;;;8.00;6.10;;;;;;;25.81;20.68;98039.13;109955;1250;68572;-71
2022/02/10 14:28:16;;;;;;;7.10;5.50;;;;;;;24.45;21.08;98028.98;109976;1250;58910;-72
2022/02/10 14:30:46;;;;;;;7.50;5.80;;;;;;;24.22;21.55;98025.36;110007;1247;70756;-69
2022/02/10 14:33:22;;;;;;;7.50;5.60;;;;;;;24.01;21.68;98019.48;109957;1250;68611;-72
2022/02/10 14:36:19;;;;;;;7.10;5.80;;;;;;;23.64;22.15;98017.77;110005;1250;68809;-76
2022/02/10 15:53:30;;;;;;;6.70;4.20;;;;;;;10.10;43.45;97974.58;109946;1250;70716;-69
2022/02/10 16:13:48;;;;;;;11.70;9.20;;;;;;;7.90;51.33;97982.65;109921;1251;68402;-71
2022/02/10 16:18:24;;;;;;;18.20;13.20;;;;;;;7.22;55.58;97983.58;109956;1251;58999;-71
2022/02/10 16:21:00;;;;;;;16.40;12.10;;;;;;;6.97;56.18;97976.52;109881;1250;70733;-72
2022/02/10 16:23:31;;;;;;;15.80;11.10;;;;;;;6.72;56.99;97981.35;110193;1248;68600;-67
2022/02/10 16:26:13;;;;;;;17.10;12.80;;;;;;;6.45;57.93;97978.63;109958;1248;67685;-66
2022/02/10 16:28:44;;;;;;;18.30;13.40;;;;;;;6.23;58.91;97970.52;109791;1251;58906;-66
2022/02/10 16:31:15;;;;;;;14.60;10.90;;;;;;;6.07;59.12;97968.64;109711;1250;59009;-65
2022/02/10 16:33:52;;;;;;;13.90;10.20;;;;;;;5.96;59.56;97964.79;110202;1247;70804;-66
2022/02/10 16:36:30;;;;;;;12.40;10.60;;;;;;;5.83;59.25;97964.33;109897;1248;68174;-71
2022/02/10 16:39:07;;;;;;;11.40;9.20;;;;;;;5.58;61.37;97961.83;109695;1251;70030;-66
2022/02/10 16:41:42;;;;;;;15.50;11.50;;;;;;;5.48;61.12;97960.86;109888;1253;58915;-68
2022/02/10 16:44:18;;;;;;;18.80;13.40;;;;;;;5.31;62.82;97964.02;109868;1250;58850;-69
2022/02/10 16:46:47;;;;;;;18.20;12.60;;;;;;;5.12;63.74;97960.52;109813;1253;70793;-69
2022/02/10 16:49:22;;;;;;;15.20;11.80;;;;;;;4.97;64.95;97957.70;109843;1250;68723;-67
2022/02/10 16:51:52;;;;;;;14.10;10.90;;;;;;;4.88;65.37;97954.79;109933;1250;69663;-66
2022/02/10 16:54:34;;;;;;;13.80;10.70;;;;;;;4.84;65.31;97952.34;109933;1251;58926;-65
2022/02/10 16:57:20;;;;;;;14.30;10.30;;;;;;;4.78;65.94;97952.25;109934;1250;58830;-67
2022/02/10 17:19:58;;;;;;;25.80;15.80;;;;;;;4.54;65.30;97945.79;109622;1253;70459;-65
2022/02/10 17:27:42;;;;;;;22.80;15.50;;;;;;;4.13;67.12;97937.41;109793;1250;70783;-73
2022/02/10 17:33:20;;;;;;;14.70;10.90;;;;;;;4.11;64.12;97930.41;109934;1248;69465;-72
2022/02/10 17:46:41;;;;;;;12.90;9.10;;;;;;;3.71;65.45;97933.99;109848;1248;69480;-71
2022/02/10 17:52:15;;;;;;;13.40;10.10;;;;;;;3.75;64.64;97925.21;110134;1248;58858;-65
2022/02/10 17:54:45;;;;;;;16.20;12.30;;;;;;;3.80;64.84;97923.15;110003;1250;70796;-66
2022/02/10 17:57:14;;;;;;;17.30;13.10;;;;;;;3.85;64.95;97920.02;110183;1248;68592;-65
2022/02/10 17:59:43;;;;;;;14.20;10.60;;;;;;;3.89;65.36;97916.06;110123;1248;69382;-71
2022/02/10 18:02:12;;;;;;;17.10;11.00;;;;;;;3.90;65.61;97917.06;110046;1250;58951;-71
2022/02/10 18:04:41;;;;;;;31.30;21.10;;;;;;;3.81;67.00;97915.33;110008;1248;58885;-71
2022/02/10 18:07:12;;;;;;;14.10;11.40;;;;;;;3.68;67.44;97920.13;110104;1251;69991;-72
2022/02/10 18:10:05;;;;;;;14.00;11.00;;;;;;;3.68;66.24;97919.95;110016;1250;67775;-73
2022/02/10 18:13:19;;;;;;;9.60;7.90;;;;;;;3.70;66.82;97916.30;109976;1251;70382;-73
2022/02/10 18:15:31;;;;;;;17.60;13.50;;;;;;;3.61;68.65;97912.33;110107;1248;58935;-67
2022/02/10 18:18:12;;;;;;;13.50;9.80;;;;;;;3.52;68.71;97910.91;110190;1250;59266;-68
2022/02/10 18:20:48;;;;;;;16.50;13.00;;;;;;;3.45;68.87;97907.52;110011;1251;71286;-65
2022/02/10 18:23:27;;;;;;;9.40;7.70;;;;;;;3.38;68.23;97906.23;109873;1251;67955;-64
2022/02/10 18:26:10;;;;;;;19.30;13.90;;;;;;;3.42;67.30;97906.77;109967;1251;69929;-66
2022/02/10 19:09:40;;;;;;;29.30;19.70;;;;;;;2.40;71.06;97896.31;109957;1247;58894;-64
2022/02/10 19:12:22;;;;;;;22.10;15.10;;;;;;;2.30;71.64;97897.15;110175;1248;58894;-66
2022/02/10 19:14:54;;;;;;;16.20;11.40;;;;;;;2.29;69.98;97896.31;109956;1248;70874;-66
2022/02/10 19:17:26;;;;;;;14.00;10.70;;;;;;;2.30;68.85;97891.49;110129;1247;68558;-65
2022/02/10 19:19:55;;;;;;;15.30;11.40;;;;;;;2.34;68.45;97889.14;110001;1251;68665;-71
2022/02/10 19:22:23;;;;;;;16.60;12.50;;;;;;;2.35;68.28;97888.42;110181;1247;58941;-72
2022/02/10 19:24:54;;;;;;;18.50;14.20;;;;;;;2.30;69.02;97888.93;109905;1251;58886;-66
2022/02/10 19:27:23;;;;;;;16.50;11.60;;;;;;;2.24;69.88;97885.14;109967;1249;70775;-71
2022/02/10 19:29:57;;;;;;;20.80;14.80;;;;;;;2.22;69.47;97882.64;110145;1247;67847;-73
2022/02/10 19:32:31;;;;;;;22.70;15.90;;;;;;;2.14;72.32;97883.07;110176;1250;69504;-66
2022/02/10 19:35:00;;;;;;;16.70;11.30;;;;;;;2.08;70.90;97883.95;110088;1248;58804;-65
2022/02/10 19:37:31;;;;;;;22.40;16.80;;;;;;;2.04;69.26;97877.36;109943;1248;58955;-66
2022/02/10 19:40:02;;;;;;;26.80;20.30;;;;;;;1.99;73.03;97878.38;109925;1250;70786;-63
2022/02/10 19:42:35;;;;;;;23.80;16.40;;;;;;;1.92;74.70;97880.13;110177;1247;68768;-64
2022/02/10 19:45:06;;;;;;;29.30;20.30;;;;;;;1.88;74.04;97883.69;110098;1247;68942;-64
2022/02/10 19:47:38;;;;;;;26.70;20.60;;;;;;;1.76;75.02;97888.19;110050;1249;58832;-68
2022/02/10 19:50:12;;;;;;;23.80;15.80;;;;;;;1.67;74.78;97889.15;110205;1248;58912;-70
2022/02/10 19:52:47;;;;;;;22.00;15.70;;;;;;;1.62;72.56;97881.73;110172;1247;71462;-72
2022/02/10 19:55:23;;;;;;;22.30;16.90;;;;;;;1.59;71.48;97880.44;109975;1250;68635;-72
2022/02/10 19:57:58;;;;;;;17.20;11.20;;;;;;;1.55;71.27;97876.43;109845;1247;68781;-70
2022/02/10 20:00:32;;;;;;;18.60;12.70;;;;;;;1.49;70.76;97871.10;109895;1247;58942;-70
2022/02/10 20:03:06;;;;;;;19.10;12.80;;;;;;;1.43;70.50;97869.05;110177;1247;58881;-71
2022/02/10 20:05:35;;;;;;;35.40;22.80;;;;;;;1.37;71.61;97870.41;109796;1251;70627;-72
2022/02/10 20:08:04;;;;;;;32.90;23.20;;;;;;;1.29;72.18;97869.79;110160;1248;67805;-71
2022/02/10 20:10:33;;;;;;;36.90;24.00;;;;;;;1.22;72.17;97867.09;110109;1247;68897;-73
2022/02/10 20:13:02;;;;;;;32.70;22.50;;;;;;;1.18;71.36;97866.69;110137;1247;58893;-72
2022/02/10 20:15:34;;;;;;;27.40;19.10;;;;;;;1.15;71.06;97866.07;109953;1248;58929;-73
2022/02/10 20:18:05;;;;;;;41.40;28.20;;;;;;;1.11;72.35;97867.56;110169;1248;71034;-71
2022/02/10 20:20:34;;;;;;;27.40;18.50;;;;;;;1.07;73.41;97868.02;110210;1248;68707;-67
2022/02/10 20:23:03;;;;;;;27.40;20.80;;;;;;;1.04;71.35;97863.79;109826;1248;68653;-64
2022/02/10 20:25:53;;;;;;;26.40;17.90;;;;;;;1.00;71.73;97861.14;109958;1247;58972;-62
2022/02/10 20:28:22;;;;;;;44.00;30.40;;;;;;;1.01;73.30;97861.15;109991;1250;58955;-67
2022/02/10 20:31:01;;;;;;;38.40;25.70;;;;;;;0.94;74.01;97856.88;110010;1248;69753;-64
2022/02/10 20:33:31;;;;;;;46.10;31.20;;;;;;;0.90;73.12;97853.38;110191;1247;68601;-72
2022/02/10 20:36:03;;;;;;;39.30;23.80;;;;;;;0.86;75.09;97852.63;110125;1248;68004;-66
2022/02/10 20:38:36;;;;;;;34.20;21.30;;;;;;;0.93;73.82;97844.73;109921;1251;58995;-68
2022/02/10 20:41:08;;;;;;;32.80;22.10;;;;;;;0.92;73.32;97839.92;109921;1247;59134;-66
2022/02/10 20:43:37;;;;;;;31.60;21.30;;;;;;;0.90;73.08;97838.08;109951;1251;70129;-65
2022/02/10 20:46:09;;;;;;;52.20;33.70;;;;;;;0.80;74.51;97839.23;110160;1248;68567;-67
2022/02/10 20:48:40;;;;;;;35.50;23.60;;;;;;;0.68;75.06;97847.08;110173;1247;69434;-66
2022/02/10 20:51:13;;;;;;;34.50;22.90;;;;;;;0.59;74.31;97842.87;110181;1247;58948;-66
2022/02/10 20:53:44;;;;;;;43.70;29.70;;;;;;;0.51;74.14;97840.34;109986;1250;58864;-65
2022/02/10 20:56:20;;;;;;;29.60;17.80;;;;;;;0.41;75.15;97835.96;110056;1247;70545;-67
2022/02/10 20:58:57;;;;;;;39.30;27.70;;;;;;;0.39;73.11;97833.77;109935;1251;67940;-64
2022/02/10 21:01:27;;;;;;;34.30;22.30;;;;;;;0.35;74.30;97830.80;109875;1249;69664;-67
2022/02/10 21:03:59;;;;;;;31.30;21.80;;;;;;;0.29;74.58;97832.31;109888;1251;58884;-64
2022/02/10 21:09:21;;;;;;;38.00;26.00;;;;;;;0.11;78.82;97831.23;110155;1247;70790;-69
2022/02/10 21:11:55;;;;;;;26.00;18.30;;;;;;;0.07;76.02;97829.10;110014;1247;68611;-64
2022/02/10 21:14:27;;;;;;;23.30;16.90;;;;;;;0.06;74.71;97829.98;109712;1251;68755;-65
2022/02/10 21:16:58;;;;;;;50.60;34.10;;;;;;;0.06;74.91;97833.40;109759;1250;58936;-69
2022/02/10 21:19:26;;;;;;;;;;;;;;;-0.07;78.78;97832.66;110032;1251;58986;-72
2022/02/10 21:21:58;;;;;;;46.60;30.00;;;;;;;-0.14;76.31;97831.98;110038;1248;69765;-72
2022/02/10 21:24:30;;;;;;;39.90;25.90;;;;;;;-0.22;75.16;97829.77;110165;1247;67810;-71
2022/02/10 21:27:24;;;;;;;39.40;23.80;;;;;;;-0.30;74.81;97828.92;110093;1247;68707;-72
2022/02/10 21:29:56;;;;;;;41.90;25.70;;;;;;;-0.36;76.19;97829.08;109880;1250;58878;-69
2022/02/10 21:32:28;;;;;;;29.90;21.70;;;;;;;-0.42;76.02;97829.35;110235;1247;58803;-69
2022/02/10 21:35:22;;;;;;;28.70;18.60;;;;;;;-0.44;74.54;97827.02;109923;1247;71293;-72
2022/02/10 21:52:44;;;;;;;49.40;31.90;;;;;;;-0.64;74.98;97805.90;109969;1248;69004;-73
2022/02/10 22:08:49;;;;;;;44.40;28.10;;;;;;;-0.99;79.08;97783.70;109981;1247;69374;-70
2022/02/10 22:21:51;;;;;;;31.40;20.60;;;;;;;-1.10;80.20;97799.48;110007;1247;68671;-65
2022/02/10 22:24:22;;;;;;;30.40;21.10;;;;;;;-1.10;82.19;97803.94;110162;1247;58935;-66
2022/02/10 22:26:53;;;;;;;25.20;16.80;;;;;;;-1.12;81.45;97800.54;110055;1251;58922;-66
2022/02/10 22:29:37;;;;;;;22.70;16.00;;;;;;;-1.14;79.15;97799.73;109782;1251;69980;-63
2022/02/10 22:32:22;;;;;;;21.20;15.60;;;;;;;-1.16;79.70;97800.82;109916;1250;68541;-65
2022/02/10 22:34:54;;;;;;;24.10;15.60;;;;;;;-1.19;80.01;97807.70;110117;1250;69748;-66
2022/02/10 22:37:23;;;;;;;21.40;16.40;;;;;;;-1.22;81.70;97807.92;109999;1250;58930;-69
2022/02/10 22:39:54;;;;;;;29.40;20.40;;;;;;;-1.24;83.15;97810.89;110047;1249;58841;-62
2022/02/10 22:42:43;;;;;;;32.50;21.00;;;;;;;-1.26;84.41;97808.00;109937;1251;70828;-66
2022/02/10 22:45:14;;;;;;;38.80;25.60;;;;;;;-1.29;85.16;97804.65;110023;1248;68735;-66
2022/02/10 22:47:43;;;;;;;41.40;26.30;;;;;;;-1.33;84.77;97802.67;110023;1248;69364;-62
2022/02/10 22:50:12;;;;;;;38.30;25.20;;;;;;;-1.34;83.25;97803.55;110198;1247;58935;-72
2022/02/10 22:52:41;;;;;;;50.10;34.00;;;;;;;-1.34;81.19;97802.52;110196;1248;58875;-66
2022/02/10 22:55:09;;;;;;;52.00;35.30;;;;;;;-1.42;84.07;97805.92;110192;1247;69793;-71
2022/02/10 22:57:39;;;;;;;51.50;32.90;;;;;;;-1.46;84.92;97811.48;110213;1247;68583;-70
2022/02/10 23:00:34;;;;;;;37.90;26.30;;;;;;;-1.49;84.91;97808.45;110227;1247;69353;-65
2022/02/10 23:03:03;;;;;;;43.60;28.20;;;;;;;-1.50;83.78;97812.74;109799;1251;58913;-64
2022/02/10 23:05:32;;;;;;;29.40;19.60;;;;;;;-1.52;83.81;97806.81;110256;1247;58940;-72
2022/02/10 23:08:01;;;;;;;29.80;20.20;;;;;;;-1.54;83.30;97805.97;110210;1247;69268;-65
2022/02/10 23:10:47;;;;;;;38.90;25.40;;;;;;;-1.56;83.03;97803.96;109941;1247;67802;-65
2022/02/10 23:13:22;;;;;;;24.50;16.40;;;;;;;-1.57;82.74;97810.30;110075;1247;69387;-71
2022/02/10 23:15:52;;;;;;;23.80;17.40;;;;;;;-1.59;82.00;97810.16;109920;1250;58904;-73
2022/02/10 23:18:26;;;;;;;22.00;16.20;;;;;;;-1.61;81.35;97809.02;109994;1248;58929;-67
2022/02/10 23:20:57;;;;;;;18.90;12.00;;;;;;;-1.63;81.08;97812.30;110147;1248;70093;-65
2022/02/10 23:23:29;;;;;;;35.20;24.00;;;;;;;-1.66;80.96;97809.11;109691;1250;68786;-65
2022/02/10 23:26:00;;;;;;;18.40;12.50;;;;;;;-1.69;81.97;97813.60;109963;1247;69483;-64
2022/02/10 23:28:36;;;;;;;20.00;14.40;;;;;;;-1.68;80.46;97810.84;109965;1247;58957;-67
2022/02/10 23:31:10;;;;;;;23.20;17.10;;;;;;;-1.64;79.08;97813.17;109673;1250;58873;-63
2022/02/10 23:33:47;;;;;;;28.70;19.50;;;;;;;-1.61;79.29;97813.64;109888;1248;70008;-65
2022/02/10 23:39:41;;;;;;;35.40;23.40;;;;;;;-1.67;80.03;97806.73;109773;1247;69200;-73
2022/02/10 23:42:17;;;;;;;28.20;20.80;;;;;;;-1.74;79.54;97811.98;109997;1251;58952;-73
2022/02/10 23:44:49;;;;;;;47.50;30.60;;;;;;;-1.84;80.09;97814.55;110006;1247;59224;-72
2022/02/10 23:47:22;;;;;;;35.80;23.40;;;;;;;-1.95;82.58;97816.77;109774;1247;70548;-71
2022/02/10 23:49:54;;;;;;;22.60;15.60;;;;;;;-1.98;81.34;97815.63;109842;1250;68580;-72
2022/02/10 23:52:25;;;;;;;48.80;30.60;;;;;;;-1.99;83.09;97812.06;109758;1250;68665;-73
2022/02/10 23:55:01;;;;;;;49.90;29.10;;;;;;;-2.02;86.02;97816.22;109936;1247;59313;-72
2022/02/10 23:57:45;;;;;;;47.30;30.20;;;;;;;-2.03;86.18;97821.01;110106;1247;58909;-71
